Time;durP1;ratioP1;P1;durP2;ratioP2;P2;SDS_P1;SDS_P2;PMS_P1;PMS_P2;Temp;Humidity;BMP_temperature;BMP_pressure;BME280_temperature;BME280_humidity;BME280_pressure;Samples;Min_cycle;Max_cycle;Signal;HPM_P1;HPM_P2
2023/11/08 00:01:56;;;;;;;16.20;7.83;;;;;;;9.27;77.32;100333.59;1762399;81;21101;-64
2023/11/08 00:04:23;;;;;;;21.07;9.90;;;;;;;9.23;77.55;100333.13;1762503;81;21102;-64
2023/11/08 00:06:51;;;;;;;30.25;13.22;;;;;;;9.17;77.75;100344.31;1762371;81;21247;-63
2023/11/08 00:09:22;;;;;;;35.73;15.68;;;;;;;9.12;78.00;100342.67;1762357;81;21153;-62
2023/11/08 00:11:51;;;;;;;42.48;18.85;;;;;;;9.07;78.28;100337.41;1762360;81;21070;-62
2023/11/08 00:14:20;;;;;;;39.70;18.12;;;;;;;9.05;78.46;100336.23;1762481;81;21156;-63
2023/11/08 00:16:49;;;;;;;33.92;16.67;;;;;;;9.02;78.67;100333.88;1762528;81;21661;-63
2023/11/08 00:19:20;;;;;;;32.42;15.60;;;;;;;9.00;78.91;100330.48;1762360;81;21586;-63
2023/11/08 00:21:49;;;;;;;36.33;15.65;;;;;;;9.00;79.14;100329.64;1762544;81;21670;-64
2023/11/08 00:24:19;;;;;;;27.73;13.15;;;;;;;8.99;79.32;100325.20;1762412;81;21144;-63
2023/11/08 00:26:48;;;;;;;29.48;12.40;;;;;;;8.95;79.53;100322.00;1784532;80;21610;-63
2023/11/08 00:29:17;;;;;;;24.87;12.28;;;;;;;8.96;79.60;100320.12;1796921;80;21105;-63
2023/11/08 00:31:47;;;;;;;25.88;12.28;;;;;;;8.93;79.54;100317.25;1796703;80;21678;-63
2023/11/08 00:34:17;;;;;;;23.32;11.43;;;;;;;8.86;79.57;100306.75;1796620;80;21125;-63
2023/11/08 00:36:48;;;;;;;22.30;11.22;;;;;;;8.81;79.89;100305.09;1796720;80;21146;-64
2023/11/08 00:39:18;;;;;;;19.85;10.08;;;;;;;8.78;80.03;100299.49;1796683;80;21098;-64
2023/11/08 00:41:48;;;;;;;17.60;9.50;;;;;;;8.73;80.17;100296.48;1796707;80;21157;-64
2023/11/08 00:44:17;;;;;;;18.05;8.68;;;;;;;8.70;80.43;100294.64;1796702;80;21145;-62
2023/11/08 00:46:46;;;;;;;16.75;8.00;;;;;;;8.64;80.51;100293.52;1796682;80;21142;-63
2023/11/08 00:49:15;;;;;;;17.67;8.35;;;;;;;8.62;80.74;100292.01;1796892;80;21579;-63
2023/11/08 00:51:44;;;;;;;16.80;8.15;;;;;;;8.58;80.90;100286.08;1796710;80;21129;-64
2023/11/08 00:54:15;;;;;;;19.17;8.35;;;;;;;8.53;81.07;100289.36;1796831;80;21101;-63
2023/11/08 00:56:44;;;;;;;16.00;7.42;;;;;;;8.50;81.33;100289.73;1796714;80;21632;-64
2023/11/08 00:59:13;;;;;;;16.35;8.25;;;;;;;8.47;81.46;100281.92;1796663;80;21137;-64
2023/11/08 01:01:42;;;;;;;17.37;8.80;;;;;;;8.48;81.58;100287.72;1797018;80;21213;-64
2023/11/08 01:04:11;;;;;;;17.37;8.73;;;;;;;8.46;81.71;100282.95;1796621;80;21125;-63
2023/11/08 01:06:42;;;;;;;15.63;8.60;;;;;;;8.45;81.85;100280.38;1796679;80;21176;-64
2023/11/08 01:09:11;;;;;;;22.90;10.00;;;;;;;8.43;82.01;100275.11;1796934;80;21565;-63
2023/11/08 01:11:42;;;;;;;17.02;8.13;;;;;;;8.42;82.06;100271.20;1796869;80;21114;-63
2023/11/08 01:14:12;;;;;;;16.30;8.93;;;;;;;8.41;82.21;100262.68;1796795;80;21145;-64
2023/11/08 01:16:41;;;;;;;18.40;8.38;;;;;;;8.38;82.37;100262.53;1796635;80;21573;-64
2023/11/08 01:19:09;;;;;;;17.05;7.37;;;;;;;8.37;82.60;100259.99;1796540;80;21105;-65
2023/11/08 01:21:40;;;;;;;14.95;6.67;;;;;;;8.35;82.74;100256.08;1796687;80;21160;-63
2023/11/08 01:24:12;;;;;;;20.80;9.45;;;;;;;8.35;82.77;100257.45;1796695;80;21129;-64
2023/11/08 01:26:41;;;;;;;18.52;7.60;;;;;;;8.33;82.95;100254.55;1791722;80;21169;-63
2023/11/08 01:29:11;;;;;;;19.75;9.25;;;;;;;8.28;83.05;100255.95;1787235;80;21098;-63
2023/11/08 01:31:39;;;;;;;26.15;10.78;;;;;;;8.25;83.27;100250.87;1786866;80;21557;-65
2023/11/08 01:34:11;;;;;;;24.67;11.30;;;;;;;8.22;83.35;100249.02;1786682;80;21126;-63
2023/11/08 01:36:41;;;;;;;26.35;12.20;;;;;;;8.20;83.54;100253.30;1786883;80;21141;-62
2023/11/08 01:39:10;;;;;;;22.45;9.95;;;;;;;8.19;83.72;100252.98;1786894;80;21638;-64
2023/11/08 01:41:48;;;;;;;23.92;9.80;;;;;;;8.19;83.82;100257.59;1786926;80;21161;-63
2023/11/08 01:44:22;;;;;;;24.05;9.43;;;;;;;8.12;83.78;100252.02;1786753;80;21631;-63
2023/11/08 01:46:54;;;;;;;20.97;9.20;;;;;;;8.07;84.01;100252.25;1786999;80;21130;-63
2023/11/08 01:49:23;;;;;;;16.73;8.45;;;;;;;8.05;84.16;100251.58;1787164;80;21115;-62
2023/11/08 01:51:53;;;;;;;19.92;9.75;;;;;;;8.05;84.28;100246.12;1787084;80;21118;-62
2023/11/08 01:54:22;;;;;;;20.37;9.68;;;;;;;8.04;84.31;100247.16;1786628;80;21597;-63
2023/11/08 01:56:51;;;;;;;19.02;9.08;;;;;;;8.04;84.45;100245.28;1760838;80;21158;-63
2023/11/08 01:59:19;;;;;;;14.95;8.00;;;;;;;8.05;84.60;100244.77;1786815;80;21561;-64
2023/11/08 02:01:48;;;;;;;15.32;7.33;;;;;;;8.04;84.65;100252.10;1787047;80;21217;-63
2023/11/08 02:04:18;;;;;;;17.00;7.25;;;;;;;8.03;84.76;100252.28;1786778;80;21113;-65
2023/11/08 02:06:49;;;;;;;16.77;7.87;;;;;;;7.99;84.94;100249.59;1786737;80;21094;-63
2023/11/08 02:09:18;;;;;;;19.32;7.90;;;;;;;7.95;85.21;100242.30;1786796;80;21553;-63
2023/11/08 02:11:47;;;;;;;15.43;7.75;;;;;;;7.95;85.44;100242.30;1787035;80;21538;-63
2023/11/08 02:14:16;;;;;;;20.08;8.88;;;;;;;7.98;85.55;100230.17;1786693;80;21187;-63
2023/11/08 02:16:46;;;;;;;17.15;8.95;;;;;;;7.99;85.48;100222.31;1787138;80;21547;-62
2023/11/08 02:19:15;;;;;;;19.48;9.38;;;;;;;8.01;85.49;100223.83;1787076;80;21122;-62
2023/11/08 02:21:45;;;;;;;25.08;10.10;;;;;;;7.97;85.51;100217.05;1787036;80;21161;-64
2023/11/08 02:24:23;;;;;;;19.37;10.20;;;;;;;7.94;85.52;100230.54;1787130;80;21102;-64
2023/11/08 02:26:52;;;;;;;20.62;10.45;;;;;;;7.93;85.71;100226.11;1787104;80;21221;-64
2023/11/08 02:29:21;;;;;;;22.25;9.50;;;;;;;7.91;85.79;100236.36;1787025;80;21133;-64
2023/11/08 02:31:51;;;;;;;23.38;9.90;;;;;;;7.88;85.95;100217.64;1787071;80;21138;-64
2023/11/08 02:34:20;;;;;;;22.45;10.45;;;;;;;7.87;86.09;100215.94;1760566;80;21538;-63
2023/11/08 02:36:50;;;;;;;22.52;9.78;;;;;;;7.86;86.32;100208.79;1787010;80;21141;-64
2023/11/08 02:39:19;;;;;;;21.23;10.45;;;;;;;7.87;86.49;100209.13;1786947;80;21666;-63
2023/11/08 02:41:50;;;;;;;20.95;9.65;;;;;;;7.90;86.54;100219.66;1786947;80;21557;-64
2023/11/08 02:44:19;;;;;;;19.42;9.58;;;;;;;7.92;86.59;100224.94;1787152;80;21157;-64
2023/11/08 02:46:48;;;;;;;24.10;8.30;;;;;;;7.92;86.66;100220.33;1787215;80;21118;-63
2023/11/08 02:49:18;;;;;;;17.52;8.53;;;;;;;7.94;86.79;100223.72;1787184;80;21134;-63
2023/11/08 02:51:47;;;;;;;18.00;8.08;;;;;;;7.94;86.87;100218.27;1786989;80;21595;-63
2023/11/08 02:54:17;;;;;;;17.62;8.60;;;;;;;7.96;86.97;100218.08;1786889;80;21150;-64
2023/11/08 02:56:46;;;;;;;20.55;8.78;;;;;;;7.96;87.05;100216.71;1787027;80;21110;-63
2023/11/08 02:59:14;;;;;;;18.98;9.53;;;;;;;7.97;87.12;100218.92;1786974;80;21138;-63
2023/11/08 03:01:44;;;;;;;19.42;9.90;;;;;;;7.95;87.18;100228.66;1787157;80;21542;-63
2023/11/08 03:04:12;;;;;;;19.85;9.93;;;;;;;7.95;87.35;100230.87;1787175;80;21099;-65
2023/11/08 03:06:42;;;;;;;17.73;9.33;;;;;;;7.98;87.49;100219.25;1786978;80;21529;-64
2023/11/08 03:09:11;;;;;;;18.40;8.98;;;;;;;8.00;87.57;100218.03;1787155;80;21160;-63
2023/11/08 03:11:40;;;;;;;19.07;8.98;;;;;;;8.01;87.59;100207.97;1787186;80;21587;-63
2023/11/08 03:14:09;;;;;;;17.70;9.03;;;;;;;8.03;87.64;100203.17;1786852;80;21137;-64
2023/11/08 03:16:38;;;;;;;18.82;9.78;;;;;;;8.05;87.69;100195.13;1786927;80;21728;-64
2023/11/08 03:19:08;;;;;;;18.55;9.23;;;;;;;8.05;87.68;100185.59;1787167;80;21113;-65
2023/11/08 03:21:48;;;;;;;16.67;9.25;;;;;;;8.06;87.70;100185.06;1787011;80;21117;-62
2023/11/08 03:24:15;;;;;;;17.75;8.93;;;;;;;8.06;87.72;100183.70;1786898;80;21623;-63
2023/11/08 03:26:49;;;;;;;19.20;8.80;;;;;;;8.06;87.70;100184.55;1789292;79;21615;-63
2023/11/08 03:29:17;;;;;;;15.43;8.33;;;;;;;8.08;87.79;100177.02;1796684;80;21578;-64
2023/11/08 03:31:47;;;;;;;17.67;8.70;;;;;;;8.08;87.78;100172.93;1796957;80;21173;-63
2023/11/08 03:34:15;;;;;;;17.05;8.78;;;;;;;8.08;87.70;100181.12;1796573;80;21596;-64
2023/11/08 03:36:45;;;;;;;16.42;8.98;;;;;;;8.08;87.70;100189.30;1796721;80;21121;-64
2023/11/08 03:39:13;;;;;;;17.07;8.53;;;;;;;8.07;87.75;100187.61;1796753;80;21117;-64
2023/11/08 03:41:42;;;;;;;19.20;8.68;;;;;;;8.05;87.84;100182.86;1797056;80;21101;-63
2023/11/08 03:44:11;;;;;;;18.70;8.78;;;;;;;8.03;87.82;100188.17;1796888;80;21191;-63
2023/11/08 03:46:42;;;;;;;18.40;8.93;;;;;;;7.99;87.82;100182.75;1796923;80;21101;-64
2023/11/08 03:49:11;;;;;;;18.77;9.10;;;;;;;7.97;87.89;100184.83;1796755;80;21149;-63
2023/11/08 03:51:40;;;;;;;18.12;8.98;;;;;;;7.99;88.05;100181.39;1796713;80;21181;-63
2023/11/08 03:54:09;;;;;;;16.95;9.00;;;;;;;8.00;88.19;100182.57;1796590;80;21165;-63
2023/11/08 03:56:38;;;;;;;19.85;9.70;;;;;;;8.03;88.23;100185.44;1796716;80;21149;-63
2023/11/08 03:59:09;;;;;;;16.97;9.55;;;;;;;7.99;88.21;100176.78;1796678;80;21157;-62
2023/11/08 04:01:39;;;;;;;21.10;10.93;;;;;;;7.97;88.33;100169.81;1796684;80;21074;-62
2023/11/08 04:04:08;;;;;;;25.17;12.98;;;;;;;7.97;88.44;100167.09;1796713;80;21157;-63
2023/11/08 04:06:38;;;;;;;30.88;14.23;;;;;;;7.97;88.56;100157.55;1796644;80;21639;-64
2023/11/08 04:09:07;;;;;;;25.30;14.38;;;;;;;7.97;88.63;100143.90;1796734;80;21089;-64
2023/11/08 04:11:37;;;;;;;33.13;16.07;;;;;;;7.98;88.78;100145.59;1796683;80;21137;-63
2023/11/08 04:14:06;;;;;;;32.28;16.57;;;;;;;8.01;88.87;100143.86;1796623;80;21556;-64
2023/11/08 04:16:39;;;;;;;36.83;16.40;;;;;;;8.05;88.91;100141.08;1796611;80;21560;-64
2023/11/08 04:19:08;;;;;;;29.92;15.45;;;;;;;8.08;88.88;100139.34;1796743;80;21557;-64
2023/11/08 04:21:38;;;;;;;29.30;14.85;;;;;;;8.09;88.85;100132.85;1796766;80;21545;-64
2023/11/08 04:24:09;;;;;;;25.77;13.78;;;;;;;8.08;88.87;100134.73;1796337;80;21121;-64
2023/11/08 04:26:37;;;;;;;23.60;12.30;;;;;;;8.08;88.89;100132.52;1796744;80;21153;-63
2023/11/08 04:29:06;;;;;;;25.10;11.88;;;;;;;8.04;88.83;100142.11;1796550;80;21599;-64
2023/11/08 04:31:36;;;;;;;23.77;10.88;;;;;;;8.04;89.03;100153.03;1796809;80;21140;-64
2023/11/08 04:34:05;;;;;;;26.42;13.62;;;;;;;8.07;89.01;100154.02;1796425;80;21583;-64
2023/11/08 04:36:35;;;;;;;27.40;13.22;;;;;;;8.06;88.89;100150.96;1796640;80;21101;-64
2023/11/08 04:39:05;;;;;;;23.32;10.45;;;;;;;8.04;88.99;100147.58;1796806;80;21192;-64
2023/11/08 04:41:33;;;;;;;18.98;9.73;;;;;;;8.05;89.15;100139.72;1796648;80;21113;-63
2023/11/08 04:44:03;;;;;;;20.40;9.88;;;;;;;8.09;89.23;100141.03;1796521;80;21106;-63
2023/11/08 04:46:32;;;;;;;20.85;9.60;;;;;;;8.14;89.22;100142.16;1796592;80;21106;-64
2023/11/08 04:49:02;;;;;;;19.15;9.68;;;;;;;8.20;89.19;100153.69;1796588;80;21125;-64
2023/11/08 04:51:31;;;;;;;21.60;10.68;;;;;;;8.26;89.09;100152.09;1699627;83;21144;-62
2023/11/08 04:54:01;;;;;;;24.77;10.15;;;;;;;8.33;88.95;100147.59;1699474;84;21153;-63
2023/11/08 04:56:30;;;;;;;19.48;10.18;;;;;;;8.37;88.72;100147.55;1681716;85;21417;-65
2023/11/08 04:58:59;;;;;;;16.60;9.80;;;;;;;8.40;88.50;100144.44;1699719;84;21146;-64
2023/11/08 05:04:04;;;;;;;25.27;11.88;;;;;;;8.52;88.20;100147.04;1829817;77;22125;-64
2023/11/08 05:06:33;;;;;;;23.95;12.18;;;;;;;8.47;88.07;100150.02;1724185;83;21608;-65
2023/11/08 05:09:02;;;;;;;20.65;11.00;;;;;;;8.47;88.03;100154.95;1739969;82;21120;-64
2023/11/08 05:11:31;;;;;;;20.77;10.75;;;;;;;8.46;87.98;100149.17;1724153;83;21577;-64
2023/11/08 05:14:03;;;;;;;21.90;10.78;;;;;;;8.44;87.94;100155.30;1740013;82;21598;-65
2023/11/08 05:16:31;;;;;;;22.48;10.63;;;;;;;8.45;87.96;100139.77;1724194;83;21130;-64
2023/11/08 05:19:03;;;;;;;23.15;11.53;;;;;;;8.47;87.93;100145.92;1740049;82;21123;-63
2023/11/08 05:21:32;;;;;;;18.50;9.75;;;;;;;8.48;87.94;100141.63;1724493;83;21168;-64
2023/11/08 05:24:01;;;;;;;21.37;10.82;;;;;;;8.49;88.02;100133.77;1724135;83;21158;-65
2023/11/08 05:26:30;;;;;;;21.15;10.88;;;;;;;8.51;88.07;100126.23;1740070;82;21139;-63
2023/11/08 05:29:00;;;;;;;17.37;9.93;;;;;;;8.52;88.09;100114.80;1724226;83;21158;-63
2023/11/08 05:31:33;;;;;;;24.35;10.40;;;;;;;8.52;88.09;100114.28;1724202;83;21562;-63
2023/11/08 05:34:03;;;;;;;24.95;10.93;;;;;;;8.53;88.15;100111.87;1739996;82;21111;-67
2023/11/08 05:36:32;;;;;;;23.65;11.78;;;;;;;8.54;88.21;100129.95;1724182;83;21573;-65
2023/11/08 05:39:02;;;;;;;26.30;11.88;;;;;;;8.55;88.23;100140.35;1740328;82;21163;-64
2023/11/08 05:41:31;;;;;;;24.05;11.70;;;;;;;8.56;88.30;100132.48;1724227;83;21617;-64
2023/11/08 05:44:00;;;;;;;20.35;10.23;;;;;;;8.58;88.35;100123.59;1740031;82;21148;-66
2023/11/08 05:46:30;;;;;;;21.97;10.65;;;;;;;8.61;88.35;100127.30;1724184;83;21560;-64
2023/11/08 05:49:00;;;;;;;22.73;11.30;;;;;;;8.62;88.24;100125.41;1740074;82;21148;-62
2023/11/08 05:51:29;;;;;;;19.23;9.83;;;;;;;8.64;88.23;100132.89;1724298;83;21129;-65
2023/11/08 05:53:58;;;;;;;22.93;11.30;;;;;;;8.66;88.27;100137.65;1724405;83;21142;-64
2023/11/08 05:56:28;;;;;;;22.50;10.98;;;;;;;8.68;88.25;100143.77;1740056;82;21131;-63
2023/11/08 05:58:57;;;;;;;27.50;11.35;;;;;;;8.70;88.37;100125.30;1724282;83;21150;-63
2023/11/08 06:01:27;;;;;;;24.25;11.95;;;;;;;8.73;88.46;100130.38;1740051;82;21187;-62
2023/11/08 06:03:56;;;;;;;24.75;11.57;;;;;;;8.73;88.67;100125.76;1711657;83;21178;-64
2023/11/08 06:06:25;;;;;;;25.85;12.25;;;;;;;8.76;89.04;100125.89;1775389;80;21103;-63
2023/11/08 06:08:54;;;;;;;24.07;12.23;;;;;;;8.80;89.33;100134.03;1775123;81;21147;-63
2023/11/08 06:11:23;;;;;;;23.02;12.40;;;;;;;8.81;89.71;100128.37;1775182;81;21135;-63
2023/11/08 06:13:52;;;;;;;24.35;12.18;;;;;;;8.84;90.07;100131.23;1774884;81;21123;-62
2023/11/08 06:16:21;;;;;;;22.70;11.85;;;;;;;8.86;90.22;100120.45;1774466;81;21186;-63
2023/11/08 06:18:50;;;;;;;21.65;10.58;;;;;;;8.89;90.37;100113.75;1774888;81;21103;-63
2023/11/08 06:21:20;;;;;;;18.77;10.43;;;;;;;8.90;90.63;100117.66;1774498;81;21100;-62
2023/11/08 06:23:51;;;;;;;20.82;10.30;;;;;;;8.91;90.89;100129.42;1774616;81;21135;-63
2023/11/08 06:26:20;;;;;;;20.68;10.85;;;;;;;8.92;91.29;100112.52;1774533;80;22009;-62
2023/11/08 06:28:49;;;;;;;20.90;10.60;;;;;;;8.94;91.65;100103.08;1774662;81;21132;-63
2023/11/08 06:31:20;;;;;;;23.55;11.55;;;;;;;8.95;91.92;100103.92;1774598;81;21126;-63
2023/11/08 06:33:49;;;;;;;23.27;11.03;;;;;;;8.97;92.20;100095.86;1774582;80;21594;-63
2023/11/08 06:36:18;;;;;;;19.07;9.70;;;;;;;9.00;92.52;100091.89;1774431;81;21523;-62
2023/11/08 06:38:48;;;;;;;21.07;10.65;;;;;;;9.03;92.62;100090.98;1774504;81;21104;-64
2023/11/08 06:41:17;;;;;;;25.27;10.90;;;;;;;9.05;92.65;100087.53;1774697;81;21613;-62
2023/11/08 06:43:46;;;;;;;38.65;16.05;;;;;;;9.07;92.81;100077.77;1774683;81;21079;-62
2023/11/08 06:46:15;;;;;;;25.27;11.03;;;;;;;9.08;93.14;100076.20;1774540;81;21169;-64
2023/11/08 06:48:44;;;;;;;23.25;10.58;;;;;;;9.05;93.58;100061.57;1774900;80;21135;-62
2023/11/08 06:51:13;;;;;;;24.55;10.93;;;;;;;9.04;94.05;100065.34;1774674;81;21135;-64
2023/11/08 06:53:42;;;;;;;24.43;12.05;;;;;;;9.06;94.49;100065.14;1774608;81;21096;-62
2023/11/08 06:56:12;;;;;;;22.87;12.45;;;;;;;9.07;94.86;100055.91;1774798;81;21535;-62
2023/11/08 06:58:41;;;;;;;27.70;13.90;;;;;;;9.08;95.07;100043.41;1774520;81;21127;-63
2023/11/08 07:01:12;;;;;;;28.20;14.00;;;;;;;9.10;95.29;100039.11;1774459;81;21123;-64
2023/11/08 07:03:41;;;;;;;29.25;12.07;;;;;;;9.13;95.43;100033.29;1774449;80;21091;-65
2023/11/08 07:06:14;;;;;;;29.50;13.60;;;;;;;9.15;95.56;100026.58;1774565;81;21164;-65
2023/11/08 07:08:42;;;;;;;27.00;14.43;;;;;;;9.14;95.70;100024.05;1774948;81;21099;-64
2023/11/08 07:11:12;;;;;;;36.63;16.12;;;;;;;9.09;95.98;100019.66;1774534;81;21159;-63
2023/11/08 07:13:42;;;;;;;32.98;15.23;;;;;;;9.10;96.29;100021.35;1774568;81;21132;-64
2023/11/08 07:16:12;;;;;;;32.95;16.35;;;;;;;9.12;96.56;100020.14;1774330;81;21103;-64
2023/11/08 07:18:41;;;;;;;35.83;17.07;;;;;;;9.11;96.83;100022.55;1774475;81;21596;-64
2023/11/08 07:21:20;;;;;;;29.18;12.55;;;;;;;9.09;97.03;100027.86;1774473;81;21170;-62
2023/11/08 07:23:50;;;;;;;26.60;11.88;;;;;;;9.08;97.27;100037.10;1774509;81;21139;-64
2023/11/08 07:26:19;;;;;;;19.77;9.98;;;;;;;9.08;97.28;100041.20;1774528;81;21088;-62
2023/11/08 07:28:48;;;;;;;19.65;9.20;;;;;;;9.11;97.18;100041.69;1774372;79;21119;-64
2023/11/08 07:31:18;;;;;;;19.27;9.25;;;;;;;9.08;96.63;100038.47;1774468;81;21116;-63
2023/11/08 07:33:49;;;;;;;21.12;10.20;;;;;;;9.05;96.44;100031.51;1774534;81;21143;-62
2023/11/08 07:36:18;;;;;;;20.52;9.68;;;;;;;9.03;96.43;100026.77;1774342;81;21143;-63
2023/11/08 07:38:47;;;;;;;20.65;10.00;;;;;;;9.00;96.26;100028.52;1774523;81;21167;-63
2023/11/08 07:41:17;;;;;;;26.40;11.68;;;;;;;8.99;96.26;100030.93;1774567;81;21186;-66
2023/11/08 07:43:47;;;;;;;25.60;11.45;;;;;;;9.00;96.32;100018.11;1774416;81;21170;-65
2023/11/08 07:46:16;;;;;;;28.60;12.43;;;;;;;9.01;96.46;100004.77;1774270;81;21135;-64
2023/11/08 07:48:45;;;;;;;33.28;12.40;;;;;;;9.02;96.63;99996.90;1774449;81;21170;-63
2023/11/08 07:51:15;;;;;;;27.13;12.55;;;;;;;9.02;96.99;99985.45;1774468;80;21135;-63
2023/11/08 07:53:44;;;;;;;24.92;11.83;;;;;;;9.04;97.43;99978.42;1774454;81;21100;-63
2023/11/08 07:56:14;;;;;;;26.73;12.35;;;;;;;9.05;97.71;99970.55;1774402;81;21115;-63
2023/11/08 07:58:42;;;;;;;26.60;12.25;;;;;;;9.05;97.96;99972.75;1720229;81;21131;-63
2023/11/08 08:01:12;;;;;;;26.07;13.32;;;;;;;9.04;98.33;99968.33;1774838;81;21112;-63
2023/11/08 08:03:42;;;;;;;26.97;13.03;;;;;;;9.03;98.61;99969.38;1774642;80;21091;-64
2023/11/08 08:06:13;;;;;;;30.30;13.25;;;;;;;9.04;99.14;99968.33;1774649;80;21112;-64
2023/11/08 08:08:43;;;;;;;31.85;15.13;;;;;;;9.06;99.57;99964.03;1774632;81;21076;-63
2023/11/08 08:11:13;;;;;;;32.33;15.80;;;;;;;9.05;99.94;99952.78;1763787;81;21080;-64
2023/11/08 08:13:45;;;;;;;28.52;15.55;;;;;;;9.01;100.00;99940.04;1774628;81;21080;-64
2023/11/08 08:16:15;;;;;;;30.90;15.70;;;;;;;9.02;100.00;99941.73;1774563;81;21091;-63
2023/11/08 08:18:45;;;;;;;24.15;13.95;;;;;;;9.02;100.00;99943.61;1774633;81;21590;-64
2023/11/08 08:21:14;;;;;;;28.40;15.53;;;;;;;9.02;100.00;99950.45;1774711;81;21108;-62
2023/11/08 08:23:46;;;;;;;31.55;15.23;;;;;;;9.03;100.00;99952.98;1774696;81;21575;-64
2023/11/08 08:26:18;;;;;;;33.95;18.12;;;;;;;9.05;100.00;99941.33;1773488;80;21131;-66
2023/11/08 08:28:47;;;;;;;39.25;20.52;;;;;;;9.07;100.00;99940.61;1774533;81;21167;-67
2023/11/08 08:31:20;;;;;;;45.45;22.70;;;;;;;9.08;100.00;99932.73;1763808;81;21104;-67
2023/11/08 08:33:50;;;;;;;39.73;21.48;;;;;;;9.09;100.00;99938.52;1774527;81;21138;-66
2023/11/08 08:36:19;;;;;;;103.65;51.83;;;;;;;9.11;100.00;99941.09;1774686;81;21123;-65
2023/11/08 08:38:48;;;;;;;99.03;51.00;;;;;;;9.11;100.00;99946.03;1774515;80;21104;-66
2023/11/08 08:41:18;;;;;;;58.85;30.08;;;;;;;9.13;100.00;99941.20;1774701;81;21620;-64
2023/11/08 08:43:47;;;;;;;52.50;24.50;;;;;;;9.14;100.00;99931.96;1774484;81;21174;-66
2023/11/08 08:46:16;;;;;;;48.17;25.77;;;;;;;9.14;100.00;99926.50;1774531;81;21112;-66
2023/11/08 08:48:45;;;;;;;55.58;25.82;;;;;;;9.13;100.00;99930.27;1774630;81;21143;-65
2023/11/08 08:51:14;;;;;;;49.38;24.47;;;;;;;9.12;100.00;99925.85;1774774;81;21143;-65
2023/11/08 08:53:44;;;;;;;58.28;26.17;;;;;;;9.10;100.00;99920.23;1774425;81;21120;-63
2023/11/08 08:56:14;;;;;;;54.23;27.87;;;;;;;9.09;100.00;99913.08;1774408;79;21159;-65
2023/11/08 08:58:43;;;;;;;61.45;28.15;;;;;;;9.08;100.00;99904.03;1774476;81;21120;-65
2023/11/08 09:01:12;;;;;;;60.35;27.32;;;;;;;9.08;100.00;99905.41;1774733;81;21080;-66
2023/11/08 09:03:41;;;;;;;61.75;27.02;;;;;;;9.11;100.00;99900.94;1775154;80;21135;-66
2023/11/08 09:06:10;;;;;;;55.55;28.07;;;;;;;9.14;100.00;99887.39;1774418;81;21143;-66
2023/11/08 09:08:39;;;;;;;51.10;27.17;;;;;;;9.13;100.00;99888.44;1774652;81;21534;-65
2023/11/08 09:11:10;;;;;;;56.77;26.10;;;;;;;9.09;100.00;99880.28;1769947;79;21754;-67
2023/11/08 09:13:39;;;;;;;51.48;25.60;;;;;;;9.07;100.00;99870.08;1748579;79;21083;-69
2023/11/08 09:16:14;;;;;;;50.95;26.20;;;;;;;9.07;100.00;99855.05;1683571;84;21635;-70
2023/11/08 09:18:49;;;;;;;50.10;23.95;;;;;;;9.06;100.00;99852.84;1750510;81;21170;-69
2023/11/08 09:21:23;;;;;;;53.25;26.05;;;;;;;9.06;100.00;99846.53;1743577;81;21159;-72
2023/11/08 09:23:52;;;;;;;54.33;26.87;;;;;;;9.09;100.00;99853.80;1771411;79;21151;-69
2023/11/08 09:26:21;;;;;;;55.55;26.65;;;;;;;9.11;100.00;99843.54;1774363;81;21095;-67
2023/11/08 09:28:50;;;;;;;57.13;26.70;;;;;;;9.12;100.00;99846.59;1774321;81;21092;-68
2023/11/08 09:31:20;;;;;;;52.75;27.90;;;;;;;9.17;100.00;99846.84;1773708;81;21143;-68
2023/11/08 09:33:49;;;;;;;59.45;27.70;;;;;;;9.18;100.00;99840.32;1772580;81;21111;-68
2023/11/08 09:36:18;;;;;;;57.10;28.65;;;;;;;9.20;100.00;99835.49;1772792;81;21135;-68
2023/11/08 09:38:50;;;;;;;58.28;27.82;;;;;;;9.19;100.00;99831.08;1772688;81;21143;-69
2023/11/08 09:41:19;;;;;;;58.70;28.83;;;;;;;9.20;100.00;99831.39;1706645;84;21139;-69
2023/11/08 09:43:51;;;;;;;61.15;28.87;;;;;;;9.21;100.00;99817.20;1772660;81;21100;-67
2023/11/08 09:46:20;;;;;;;53.85;27.75;;;;;;;9.21;100.00;99813.95;1706524;84;21600;-67
2023/11/08 09:48:50;;;;;;;58.75;28.65;;;;;;;9.21;100.00;99812.58;1754412;81;21128;-68
2023/11/08 09:51:19;;;;;;;60.23;28.23;;;;;;;9.23;100.00;99815.64;1743812;82;21524;-71
2023/11/08 09:53:49;;;;;;;66.70;29.98;;;;;;;9.23;100.00;99802.81;1743803;81;21166;-68
2023/11/08 09:56:19;;;;;;;64.58;31.48;;;;;;;9.24;100.00;99800.92;1744034;82;21101;-67
2023/11/08 09:58:49;;;;;;;66.05;33.00;;;;;;;9.21;100.00;99802.17;1743887;81;21572;-69
2023/11/08 10:01:18;;;;;;;64.35;32.42;;;;;;;9.17;100.00;99803.10;1744048;82;21156;-68
2023/11/08 10:03:48;;;;;;;126.05;67.72;;;;;;;9.16;100.00;99799.20;1743889;81;21591;-69
2023/11/08 10:06:17;;;;;;;69.17;32.93;;;;;;;9.18;100.00;99800.69;1733640;81;21156;-67
2023/11/08 10:08:47;;;;;;;62.27;30.25;;;;;;;9.21;100.00;99798.07;1743970;82;21172;-68
2023/11/08 10:11:17;;;;;;;62.98;31.20;;;;;;;9.23;100.00;99799.23;1743905;82;21532;-69
2023/11/08 10:13:52;;;;;;;66.47;33.10;;;;;;;9.25;100.00;99796.62;1743685;81;21216;-67
2023/11/08 10:16:22;;;;;;;69.07;35.15;;;;;;;9.24;100.00;99789.46;1743796;82;21553;-68
2023/11/08 10:18:58;;;;;;;68.12;34.73;;;;;;;9.26;100.00;99781.06;1743878;82;21603;-66
2023/11/08 10:21:30;;;;;;;69.55;36.60;;;;;;;9.27;100.00;99780.86;1742778;81;21117;-68
2023/11/08 10:24:11;;;;;;;60.35;30.97;;;;;;;9.29;100.00;99781.49;1773015;81;21112;-67
2023/11/08 10:26:42;;;;;;;63.68;33.80;;;;;;;9.33;100.00;99786.03;1773073;80;21636;-67
2023/11/08 10:29:11;;;;;;;63.83;33.92;;;;;;;9.33;100.00;99789.61;1706652;84;21579;-68
2023/11/08 10:31:42;;;;;;;73.80;35.95;;;;;;;9.33;100.00;99780.56;1772404;81;21566;-68
2023/11/08 10:34:13;;;;;;;72.00;37.60;;;;;;;9.34;100.00;99780.87;1772926;81;21127;-67
2023/11/08 10:36:42;;;;;;;76.77;38.33;;;;;;;9.37;100.00;99775.84;1764736;81;21539;-67
2023/11/08 10:39:16;;;;;;;81.17;38.53;;;;;;;9.38;100.00;99768.48;1747376;81;21131;-69
2023/11/08 10:41:48;;;;;;;73.33;35.03;;;;;;;9.39;100.00;99772.91;1774442;81;21143;-66
2023/11/08 10:44:22;;;;;;;70.32;35.70;;;;;;;9.42;100.00;99765.66;1761532;81;21095;-68
2023/11/08 10:46:59;;;;;;;69.12;34.73;;;;;;;9.46;100.00;99762.83;1743595;82;21115;-67
2023/11/08 10:49:30;;;;;;;66.70;35.40;;;;;;;9.45;100.00;99755.16;1743452;82;21155;-69
2023/11/08 10:52:01;;;;;;;63.00;33.55;;;;;;;9.45;100.00;99755.16;1745679;81;21151;-68
2023/11/08 10:54:30;;;;;;;77.35;39.03;;;;;;;9.45;100.00;99749.68;1774605;81;21547;-66
2023/11/08 10:59:44;;;;;;;69.15;33.85;;;;;;;9.47;100.00;99733.06;1778527;81;21607;-68
2023/11/08 11:02:37;;;;;;;73.10;36.70;;;;;;;9.50;100.00;99731.29;1714686;84;21604;-68
2023/11/08 11:05:08;;;;;;;67.42;35.75;;;;;;;9.50;100.00;99717.09;1714413;84;21201;-69
2023/11/08 11:07:42;;;;;;;73.60;36.08;;;;;;;9.55;100.00;99712.36;1731941;83;21116;-67
2023/11/08 11:10:13;;;;;;;74.75;38.55;;;;;;;9.56;100.00;99701.74;1714625;83;21279;-66
2023/11/08 11:13:11;;;;;;;80.90;40.03;;;;;;;9.56;100.00;99683.97;1732244;83;21330;-70
2023/11/08 11:15:57;;;;;;;81.12;40.58;;;;;;;9.55;100.00;99675.45;1707472;84;21672;-70
2023/11/08 11:18:38;;;;;;;75.83;36.75;;;;;;;9.55;100.00;99672.71;1743873;82;21119;-69
2023/11/08 11:21:30;;;;;;;73.10;38.42;;;;;;;9.59;100.00;99671.23;1714543;84;21185;-68
2023/11/08 11:23:59;;;;;;;81.65;38.78;;;;;;;9.64;100.00;99668.72;1685950;85;21131;-69
2023/11/08 11:26:47;;;;;;;78.67;38.05;;;;;;;9.66;100.00;99674.82;1685725;85;21650;-67
2023/11/08 11:29:18;;;;;;;79.27;38.53;;;;;;;9.69;100.00;99673.03;1685839;85;21218;-68
2023/11/08 11:31:47;;;;;;;75.25;37.88;;;;;;;9.73;100.00;99672.93;1685749;85;21183;-67
2023/11/08 11:34:31;;;;;;;79.27;39.65;;;;;;;9.75;100.00;99672.72;1685717;85;21210;-66
2023/11/08 11:37:10;;;;;;;78.33;39.13;;;;;;;9.74;100.00;99665.04;1685895;85;21139;-68
2023/11/08 11:39:52;;;;;;;82.17;39.23;;;;;;;9.75;100.00;99657.67;1714597;84;21222;-66